Latest Coastal Weather Observations for Merimbula

IDN60701

Issued at 8:02 pm EDT Sunday 7 March 2021 (issued every 10 minutes, with the page automatically refreshed every 10 minutes)

About coastal observations | Map of coastal stations | Coastal observations for NSW | Marine services | Other Formats
Station Details ID: 069147 Name: MERIMBULA AIRPORT AWS Lat: -36.91 Lon: 149.90 Height: 1.5 m
Data from the previous 72 hours. | See also: Recent months at Merimbula
Date/Time
EDT
Wind Sea
Height
m
Swell Vis
km
Cloud Weather Temp
°C
Press
MSL
hPa
Rain since
9am
mm
Dir  Spd
kts
Gust
kts
Height
m
Period
s
Dir
07/08:00pm NNE 6 12 - - - - 10 Clear - 20.6 1011.1 0.0
07/07:30pm NNE 7 13 - - - - 10 - - 20.6 1011.0 0.0
07/07:00pm NNE 7 13 - - - - 10 - - 20.8 1010.9 0.0
07/06:30pm NE 9 13 - - - - 10 - - 21.2 1010.7 0.0
07/06:00pm NNE 10 16 - - - - 10 - - 21.5 1010.4 0.0
07/05:30pm NE 10 16 - - - - 10 - - 21.4 1010.4 0.0
07/05:00pm NE 11 17 - - - - 10 - - 22.1 1010.2 0.0
07/04:30pm NE 11 17 - - - - 10 - - 22.1 1010.3 0.0
07/04:00pm NE 10 19 - - - - 10 - - 22.4 1010.5 0.0
07/03:30pm NE 11 18 - - - - - - - 22.4 1010.7 0.0
07/03:00pm NE 11 19 - - - - 10 - - 22.7 1011.1 0.0
07/02:30pm NE 11 19 - - - - 10 - - 22.1 1011.4 0.0
07/02:00pm NE 11 17 - - - - 10 Partly cloudy - 21.9 1011.7 0.0
07/01:30pm NE 11 18 - - - - 10 Partly cloudy - 21.6 1012.1 0.0
07/01:00pm NE 9 17 - - - - 10 Partly cloudy - 22.2 1012.5 0.0
07/12:30pm NE 9 17 - - - - 10 Partly cloudy - 21.6 1012.9 0.0
07/12:00pm NE 9 14 - - - - 10 - - 21.7 1013.3 0.0
07/11:30am NE 9 16 - - - - 10 - - 20.7 1013.7 0.0
07/11:00am NE 9 14 - - - - 10 - - 20.7 1014.1 0.0
07/10:30am NE 8 12 - - - - 10 Partly cloudy - 20.4 1014.4 0.0
07/10:00am NE 7 11 - - - - 10 Partly cloudy - 19.9 1014.5 0.0
07/09:30am N 4 8 - - - - 10 Cloudy - 18.7 1014.5 0.0
07/09:00am CALM 0 0 - - - - 10 Cloudy - 16.7 1014.7 0.0
07/08:30am CALM 0 0 - - - - 10 Cloudy - 14.3 1014.8 0.0
07/08:00am CALM 0 0 - - - - 10 Cloudy - 13.2 1014.7 0.0
07/07:30am CALM 0 0 - - - - 10 Cloudy - 12.4 1014.6 0.0
07/07:00am CALM 0 0 - - - - 10 Cloudy - 11.7 1014.5 0.0
07/06:30am CALM 0 0 - - - - 10 Cloudy - 11.5 1014.3 0.0
07/06:00am CALM 0 0 - - - - 10 Partly cloudy - 10.5 1014.2 0.0
07/05:30am CALM 0 0 - - - - 10 Partly cloudy - 11.1 1014.1 0.0
07/05:00am CALM 0 0 - - - - 10 Partly cloudy - 11.2 1014.3 0.0
07/04:30am CALM 0 0 - - - - 10 - - 10.5 1014.3 0.0
07/04:00am CALM 0 0 - - - - 10 Partly cloudy - 11.1 1014.3 0.0
07/03:30am CALM 0 0 - - - - 10 - - 11.6 1014.6 0.0
07/03:00am WSW 3 4 - - - - 10 - - 12.4 1014.7 0.0
07/02:30am SW 4 5 - - - - 10 Partly cloudy - 13.1 1015.0 0.0
07/02:00am NW 5 7 - - - - 10 Partly cloudy - 14.0 1015.2 0.0
07/01:30am CALM 0 0 - - - - - - - 14.0 1015.4 0.0
07/01:00am CALM 0 0 - - - - 10 Partly cloudy - 15.1 1015.6 0.0
07/12:30am CALM 0 0 - - - - 10 Partly cloudy - 15.6 1015.9 0.0
07/12:00am CALM 0 0 - - - - - Cloudy - 15.6 1016.0 0.0
 
Date/Time
EDT
Wind Sea
Height
m
Swell Vis
km
Cloud Weather Temp
°C
Press
MSL
hPa
Rain since
9am
mm
Dir  Spd
kts
Gust
kts
Height
m
Period
s
Dir
06/11:30pm CALM 0 0 - - - - 10 Partly cloudy - 15.9 1016.1 0.0
06/11:00pm CALM 0 0 - - - - 10 Partly cloudy - 16.2 1016.1 0.0
06/10:30pm CALM 0 0 - - - - - Cloudy - 16.5 1016.2 0.0
06/10:00pm CALM 0 0 - - - - 10 Cloudy - 16.7 1016.2 0.0
06/09:30pm S 5 7 - - - - - Cloudy - 16.9 1016.2 0.0
06/09:00pm S 7 11 - - - - - Cloudy - 17.0 1015.8 0.0
06/08:30pm SSE 9 13 - - - - - Partly cloudy - 17.1 1015.2 0.0
06/08:00pm SSE 7 11 - - - - 10 Partly cloudy - 17.5 1014.7 0.0
06/07:30pm SSE 9 13 - - - - 10 Partly cloudy - 17.7 1014.2 0.0
06/07:00pm SE 9 15 - - - - 10 Partly cloudy - 18.2 1013.9 0.0
06/06:30pm SE 10 15 - - - - 10 Partly cloudy - 18.4 1013.6 0.0
06/06:00pm SE 10 17 - - - - 10 - - 18.7 1013.4 0.0
06/05:30pm SE 9 16 - - - - 10 Partly cloudy - 19.8 1013.2 0.0
06/05:00pm SE 9 15 - - - - 10 Cloudy - 19.3 1013.0 0.0
06/04:30pm ESE 9 14 - - - - 10 Cloudy - 19.5 1012.9 0.0
06/04:00pm SE 9 14 - - - - 10 Partly cloudy - 20.0 1012.9 0.0
06/03:30pm SSE 9 15 - - - - 10 Partly cloudy - 21.2 1012.9 0.0
06/03:00pm S 8 13 - - - - 10 Mostly clear - 21.5 1013.1 0.0
06/02:30pm SE 9 14 - - - - 10 Partly cloudy - 21.6 1013.2 0.0
06/02:00pm SSE 7 12 - - - - 10 Cloudy - 20.4 1013.5 0.0
06/01:30pm SSE 8 12 - - - - 10 Partly cloudy - 19.9 1013.9 0.0
06/01:00pm SW 6 13 - - - - 10 Partly cloudy - 19.9 1013.9 0.0
06/12:30pm SSW 6 10 - - - - 10 Cloudy - 20.1 1014.0 0.0
06/12:00pm SSW 6 11 - - - - 10 Mostly cloudy - 19.6 1014.1 0.0
06/11:30am SSW 5 9 - - - - 10 Cloudy - 18.9 1014.2 0.0
06/11:00am S 7 11 - - - - 10 Cloudy - 18.7 1014.3 0.0
06/10:30am S 9 13 - - - - 10 Cloudy - 19.1 1014.3 0.0
06/10:00am WSW 6 10 - - - - 10 Partly cloudy - 17.7 1014.3 0.0
06/09:30am WSW 7 10 - - - - 10 Partly cloudy - 17.4 1014.2 0.0
06/09:00am CALM 0 0 - - - - 10 Partly cloudy - 16.1 1013.9 0.0
06/08:30am SW 2 5 - - - - 10 Partly cloudy - 15.3 1013.7 0.0
06/08:00am CALM 0 0 - - - - 10 Cloudy - 14.1 1013.4 0.0
06/07:30am CALM 0 0 - - - - 10 Partly cloudy - 13.2 1013.2 0.0
06/07:00am CALM 0 0 - - - - 10 Partly cloudy - 13.7 1012.6 0.0
06/06:30am SSW 3 5 - - - - 10 Partly cloudy - 13.9 1012.5 0.0
06/06:00am WSW 5 9 - - - - 10 Cloudy - 14.5 1012.1 0.0
06/05:30am WSW 8 13 - - - - - Partly cloudy - 14.2 1011.9 0.0
06/05:00am W 7 11 - - - - 10 - - 13.3 1011.7 0.0
06/04:30am WNW 7 9 - - - - 10 - - 12.9 1011.9 0.0
06/04:00am WNW 7 9 - - - - 10 - - 12.4 1012.1 0.0
06/03:30am WNW 5 6 - - - - 10 Partly cloudy - 12.0 1012.1 0.0
06/03:00am CALM 0 0 - - - - 10 - - 10.9 1012.3 0.0
06/02:30am SSW 1 3 - - - - 10 - - 12.2 1012.3 0.0
06/02:00am SSW 4 6 - - - - 10 Partly cloudy - 14.0 1012.6 0.0
06/01:30am WSW 4 11 - - - - - - - 14.9 1012.6 0.0
06/01:00am SW 7 13 - - - - - - - 15.1 1012.7 0.0
06/12:30am SSW 7 12 - - - - - - - 15.1 1012.7 0.0
06/12:00am SSW 6 10 - - - - - Mostly clear - 14.8 1012.6 0.0
 
Date/Time
EDT
Wind Sea
Height
m
Swell Vis
km
Cloud Weather Temp
°C
Press
MSL
hPa
Rain since
9am
mm
Dir  Spd
kts
Gust
kts
Height
m
Period
s
Dir
05/11:30pm SSW 8 16 - - - - 10 Partly cloudy - 15.5 1012.8 0.0
05/11:00pm SW 5 8 - - - - 10 Cloudy - 15.2 1013.0 0.0
05/10:30pm SSW 5 8 - - - - - Cloudy - 14.8 1012.9 0.0
05/10:00pm SW 3 5 - - - - 10 Cloudy - 14.5 1012.6 0.0
05/09:30pm S 5 8 - - - - 10 Cloudy - 15.2 1012.2 0.0
05/09:00pm S 9 14 - - - - 10 - - 15.6 1011.8 0.0
05/08:30pm S 11 15 - - - - 10 - - 16.0 1011.3 0.0
05/08:00pm S 8 14 - - - - 10 - - 16.3 1010.9 0.0
05/07:30pm S 8 13 - - - - 10 - - 17.1 1010.5 0.0
05/07:00pm S 7 13 - - - - 10 - - 18.1 1010.1 0.0
05/06:30pm S 10 15 - - - - 10 - - 18.8 1009.7 0.0
05/06:00pm S 10 15 - - - - 10 - - 20.0 1009.4 0.0
05/05:30pm SSW 9 14 - - - - 10 - - 21.0 1009.0 0.0
05/05:00pm S 11 17 - - - - - - - 21.0 1008.8 0.0
05/04:30pm SSW 8 14 - - - - 10 - - 22.2 1008.6 0.0
05/04:00pm SSW 9 17 - - - - 10 - - 22.5 1008.6 0.0
05/03:30pm SW 12 18 - - - - 10 - - 22.1 1008.8 0.0
05/03:00pm SSW 10 17 - - - - 10 - - 21.6 1009.1 0.0
05/02:30pm SW 11 18 - - - - 10 Partly cloudy - 21.4 1009.6 0.0
05/02:00pm SSW 11 17 - - - - 10 - - 21.1 1009.8 0.0
05/01:30pm SW 14 22 - - - - 10 Partly cloudy - 21.1 1009.8 0.0
05/01:00pm SSW 10 21 - - - - 10 Partly cloudy - 20.5 1009.9 0.0
05/12:30pm SSW 9 15 - - - - 10 Cloudy - 19.5 1010.2 0.0
05/12:00pm SW 11 22 - - - - 10 Mostly cloudy - 19.2 1010.4 0.0
05/11:30am SW 12 19 - - - - 10 Partly cloudy - 19.8 1010.5 0.0
05/11:00am SW 11 19 - - - - 10 Partly cloudy - 18.7 1010.5 0.0
05/10:30am WSW 11 18 - - - - 10 Partly cloudy - 18.3 1010.5 0.0
05/10:00am SSW 7 12 - - - - 10 Cloudy - 17.2 1010.6 0.0
05/09:30am SW 7 14 - - - - 10 Partly cloudy - 17.1 1010.4 0.0
05/09:00am SW 8 21 - - - - 10 Cloudy - 16.8 1010.1 0.0
05/08:30am SW 11 16 - - - - 10 Cloudy - 16.7 1009.7 0.0
05/08:00am WSW 8 16 - - - - 10 Cloudy - 16.5 1009.5 0.0
05/07:30am SW 10 19 - - - - 10 Cloudy - 16.4 1009.1 0.0
05/07:00am SW 12 25 - - - - 10 Partly cloudy - 16.1 1008.8 0.0
05/06:30am SW 13 23 - - - - 10 - - 16.2 1008.2 0.0
05/06:00am SSW 8 13 - - - - 10 - - 15.8 1007.6 0.0
05/05:30am SSW 7 12 - - - - 10 - - 16.5 1006.9 0.0
05/05:00am SW 6 9 - - - - 10 - - 16.7 1006.7 0.0
05/04:30am SSW 8 13 - - - - 10 - - 16.5 1006.4 0.0
05/04:00am SW 5 6 - - - - 10 Partly cloudy - 14.3 1006.5 0.0
05/03:30am WNW 3 6 - - - - 10 - - 14.3 1006.4 0.0
05/03:00am N 1 5 - - - - 10 Mostly clear - 13.7 1006.5 0.0
05/02:30am NW 4 6 - - - - 10 Partly cloudy - 14.1 1006.5 0.0
05/02:00am S 3 5 - - - - 10 Partly cloudy - 13.6 1006.6 0.0
05/01:30am SW 2 5 - - - - 10 Cloudy - 13.3 1007.1 0.0
05/01:00am CALM 0 3 - - - - 10 Partly cloudy - 13.4 1007.3 0.0
05/12:30am W 3 4 - - - - 10 - - 13.4 1007.5 0.0
05/12:00am S 2 7 - - - - 10 - - 13.7 1007.7 0.0
 
Date/Time
EDT
Wind Sea
Height
m
Swell Vis
km
Cloud Weather Temp
°C
Press
MSL
hPa
Rain since
9am
mm
Dir  Spd
kts
Gust
kts
Height
m
Period
s
Dir
04/11:30pm SW 2 6 - - - - 10 Partly cloudy - 14.6 1007.9 0.0
04/11:00pm NW 5 7 - - - - 10 Partly cloudy - 15.4 1008.1 0.0
04/10:30pm CALM 0 4 - - - - 10 Cloudy - 15.2 1008.3 0.0
04/10:00pm SSW 5 7 - - - - 10 Partly cloudy - 15.1 1008.4 0.0
04/09:30pm CALM 0 0 - - - - 10 - - 15.4 1008.4 0.0
04/09:00pm NNW 4 5 - - - - 10 - - 16.3 1008.4 0.0
04/08:30pm NW 3 5 - - - - 10 - - 16.7 1008.5 0.0

Other formats

Comma delimited format used in spreadsheet applications
http://www.bom.gov.au/fwo/IDN60701/IDN60701.95929.axf

JavaScript Object Notation format (JSON) in row-major order
http://www.bom.gov.au/fwo/IDN60701/IDN60701.95929.json

Data quality

Most of these data are generated automatically and are frequently updated. Quality checks on data are not normally performed. It is possible for incorrect values to appear. Refer to information at About Latest Weather Observations and please check the disclaimer before using these data.